sensor_id;sensor_type;location;lat;lon;timestamp;temperature;humidity
23550;DHT22;11953;49.010;8.608;2022-07-23T00:02:30;25.90;99.90
23550;DHT22;11953;49.010;8.608;2022-07-23T00:05:17;25.80;99.90
23550;DHT22;11953;49.010;8.608;2022-07-23T00:08:04;25.80;99.90
23550;DHT22;11953;49.010;8.608;2022-07-23T00:10:59;25.80;99.90
23550;DHT22;11953;49.010;8.608;2022-07-23T00:13:46;26.00;99.90
23550;DHT22;11953;49.010;8.608;2022-07-23T00:16:33;26.00;99.90
23550;DHT22;11953;49.010;8.608;2022-07-23T00:19:20;26.00;99.90
23550;DHT22;11953;49.010;8.608;2022-07-23T00:22:06;25.90;99.90
23550;DHT22;11953;49.010;8.608;2022-07-23T00:24:53;25.90;99.90
23550;DHT22;11953;49.010;8.608;2022-07-23T00:28:02;25.80;99.90
23550;DHT22;11953;49.010;8.608;2022-07-23T00:30:49;25.80;99.90
23550;DHT22;11953;49.010;8.608;2022-07-23T00:33:36;25.70;99.90
23550;DHT22;11953;49.010;8.608;2022-07-23T00:36:23;25.70;99.90
23550;DHT22;11953;49.010;8.608;2022-07-23T00:39:10;25.90;99.90
23550;DHT22;11953;49.010;8.608;2022-07-23T00:41:56;25.90;99.90
23550;DHT22;11953;49.010;8.608;2022-07-23T00:44:45;25.90;99.90
23550;DHT22;11953;49.010;8.608;2022-07-23T00:47:33;25.80;99.90
23550;DHT22;11953;49.010;8.608;2022-07-23T00:50:19;25.80;99.90
23550;DHT22;11953;49.010;8.608;2022-07-23T00:53:06;25.80;99.90
23550;DHT22;11953;49.010;8.608;2022-07-23T00:55:54;25.70;99.90
23550;DHT22;11953;49.010;8.608;2022-07-23T00:58:41;25.70;99.90
23550;DHT22;11953;49.010;8.608;2022-07-23T01:01:30;25.60;99.90
23550;DHT22;11953;49.010;8.608;2022-07-23T01:04:17;25.50;99.90
23550;DHT22;11953;49.010;8.608;2022-07-23T01:07:04;25.50;99.90
23550;DHT22;11953;49.010;8.608;2022-07-23T01:09:51;25.50;99.90
23550;DHT22;11953;49.010;8.608;2022-07-23T01:12:38;25.50;99.90
23550;DHT22;11953;49.010;8.608;2022-07-23T01:15:26;25.40;99.90
23550;DHT22;11953;49.010;8.608;2022-07-23T01:18:14;25.40;99.90
23550;DHT22;11953;49.010;8.608;2022-07-23T01:21:02;25.30;99.90
23550;DHT22;11953;49.010;8.608;2022-07-23T01:23:50;25.20;99.90
23550;DHT22;11953;49.010;8.608;2022-07-23T01:26:38;25.30;99.90
23550;DHT22;11953;49.010;8.608;2022-07-23T01:29:25;25.30;99.90
23550;DHT22;11953;49.010;8.608;2022-07-23T01:32:14;25.30;99.90
23550;DHT22;11953;49.010;8.608;2022-07-23T01:35:02;25.40;99.90
23550;DHT22;11953;49.010;8.608;2022-07-23T01:37:49;25.40;99.90
23550;DHT22;11953;49.010;8.608;2022-07-23T01:40:38;25.20;99.90
23550;DHT22;11953;49.010;8.608;2022-07-23T01:43:25;25.20;99.90
23550;DHT22;11953;49.010;8.608;2022-07-23T01:46:12;25.10;99.90
23550;DHT22;11953;49.010;8.608;2022-07-23T01:49:05;25.10;99.90
23550;DHT22;11953;49.010;8.608;2022-07-23T01:52:18;25.10;99.90
23550;DHT22;11953;49.010;8.608;2022-07-23T01:55:08;25.20;99.90
23550;DHT22;11953;49.010;8.608;2022-07-23T01:58:06;25.20;99.90
23550;DHT22;11953;49.010;8.608;2022-07-23T02:00:53;25.10;99.90
23550;DHT22;11953;49.010;8.608;2022-07-23T02:03:40;25.10;99.90
23550;DHT22;11953;49.010;8.608;2022-07-23T02:06:27;25.00;99.90
23550;DHT22;11953;49.010;8.608;2022-07-23T02:09:14;25.00;99.90
23550;DHT22;11953;49.010;8.608;2022-07-23T02:12:01;25.10;99.90
23550;DHT22;11953;49.010;8.608;2022-07-23T02:14:50;25.00;99.90
23550;DHT22;11953;49.010;8.608;2022-07-23T02:17:37;25.00;99.90
23550;DHT22;11953;49.010;8.608;2022-07-23T02:20:26;24.90;99.90
23550;DHT22;11953;49.010;8.608;2022-07-23T02:23:13;24.90;99.90
23550;DHT22;11953;49.010;8.608;2022-07-23T02:25:59;24.80;99.90
23550;DHT22;11953;49.010;8.608;2022-07-23T02:28:48;24.60;99.90
23550;DHT22;11953;49.010;8.608;2022-07-23T02:31:36;24.60;99.90
23550;DHT22;11953;49.010;8.608;2022-07-23T02:34:25;24.50;99.90
23550;DHT22;11953;49.010;8.608;2022-07-23T02:37:12;24.40;99.90
23550;DHT22;11953;49.010;8.608;2022-07-23T02:39:59;24.30;99.90
23550;DHT22;11953;49.010;8.608;2022-07-23T02:42:49;24.20;99.90
23550;DHT22;11953;49.010;8.608;2022-07-23T02:45:35;24.10;99.90
23550;DHT22;11953;49.010;8.608;2022-07-23T02:48:23;24.00;99.90
23550;DHT22;11953;49.010;8.608;2022-07-23T02:51:11;24.10;99.90
23550;DHT22;11953;49.010;8.608;2022-07-23T02:54:06;24.00;99.90
23550;DHT22;11953;49.010;8.608;2022-07-23T02:56:53;24.00;99.90
23550;DHT22;11953;49.010;8.608;2022-07-23T02:59:40;23.80;99.90
23550;DHT22;11953;49.010;8.608;2022-07-23T03:02:27;23.80;99.90
23550;DHT22;11953;49.010;8.608;2022-07-23T03:05:15;23.80;99.90
23550;DHT22;11953;49.010;8.608;2022-07-23T03:08:02;23.90;99.90
23550;DHT22;11953;49.010;8.608;2022-07-23T03:10:52;24.00;99.90
23550;DHT22;11953;49.010;8.608;2022-07-23T03:13:39;23.90;99.90
23550;DHT22;11953;49.010;8.608;2022-07-23T03:16:26;23.70;99.90
23550;DHT22;11953;49.010;8.608;2022-07-23T03:19:13;23.70;99.90
23550;DHT22;11953;49.010;8.608;2022-07-23T03:22:02;23.80;99.90
23550;DHT22;11953;49.010;8.608;2022-07-23T03:24:48;23.90;99.90
23550;DHT22;11953;49.010;8.608;2022-07-23T03:27:43;23.80;99.90
23550;DHT22;11953;49.010;8.608;2022-07-23T03:30:31;23.90;99.90
23550;DHT22;11953;49.010;8.608;2022-07-23T03:33:19;23.90;99.90
23550;DHT22;11953;49.010;8.608;2022-07-23T03:36:07;23.90;99.90
23550;DHT22;11953;49.010;8.608;2022-07-23T03:39:04;23.80;99.90
23550;DHT22;11953;49.010;8.608;2022-07-23T03:41:57;23.80;99.90
23550;DHT22;11953;49.010;8.608;2022-07-23T03:44:44;23.60;99.90
23550;DHT22;11953;49.010;8.608;2022-07-23T03:47:30;23.40;99.90
23550;DHT22;11953;49.010;8.608;2022-07-23T03:50:17;23.50;99.90
23550;DHT22;11953;49.010;8.608;2022-07-23T03:53:04;23.50;99.90
23550;DHT22;11953;49.010;8.608;2022-07-23T03:55:53;23.50;99.90
23550;DHT22;11953;49.010;8.608;2022-07-23T03:58:41;23.50;99.90
23550;DHT22;11953;49.010;8.608;2022-07-23T04:01:28;23.40;99.90
23550;DHT22;11953;49.010;8.608;2022-07-23T04:04:16;23.40;99.90
23550;DHT22;11953;49.010;8.608;2022-07-23T04:07:03;23.30;99.90
23550;DHT22;11953;49.010;8.608;2022-07-23T04:09:51;23.20;99.90
23550;DHT22;11953;49.010;8.608;2022-07-23T04:12:39;22.90;99.90
23550;DHT22;11953;49.010;8.608;2022-07-23T04:15:26;22.60;99.90
23550;DHT22;11953;49.010;8.608;2022-07-23T04:18:12;22.50;99.90
23550;DHT22;11953;49.010;8.608;2022-07-23T04:21:10;22.50;99.90
23550;DHT22;11953;49.010;8.608;2022-07-23T04:23:57;22.60;99.90
23550;DHT22;11953;49.010;8.608;2022-07-23T04:26:44;22.70;99.90
23550;DHT22;11953;49.010;8.608;2022-07-23T04:29:32;22.80;99.90
23550;DHT22;11953;49.010;8.608;2022-07-23T04:32:19;22.80;99.90
23550;DHT22;11953;49.010;8.608;2022-07-23T04:35:06;22.90;99.90
23550;DHT22;11953;49.010;8.608;2022-07-23T04:37:54;22.90;99.90
23550;DHT22;11953;49.010;8.608;2022-07-23T04:40:42;23.00;99.90
23550;DHT22;11953;49.010;8.608;2022-07-23T04:43:29;23.10;99.90
23550;DHT22;11953;49.010;8.608;2022-07-23T04:46:17;23.00;99.90
23550;DHT22;11953;49.010;8.608;2022-07-23T04:49:06;23.00;99.90
23550;DHT22;11953;49.010;8.608;2022-07-23T04:51:54;22.90;99.90
23550;DHT22;11953;49.010;8.608;2022-07-23T04:54:41;23.00;99.90
23550;DHT22;11953;49.010;8.608;2022-07-23T04:57:27;22.80;99.90
23550;DHT22;11953;49.010;8.608;2022-07-23T05:00:15;22.80;99.90
23550;DHT22;11953;49.010;8.608;2022-07-23T05:03:03;22.90;99.90
23550;DHT22;11953;49.010;8.608;2022-07-23T05:05:50;23.00;99.90
23550;DHT22;11953;49.010;8.608;2022-07-23T05:08:37;23.20;99.90
23550;DHT22;11953;49.010;8.608;2022-07-23T05:11:23;23.20;99.90
23550;DHT22;11953;49.010;8.608;2022-07-23T05:14:12;23.30;99.90
23550;DHT22;11953;49.010;8.608;2022-07-23T05:16:59;23.40;99.90
23550;DHT22;11953;49.010;8.608;2022-07-23T05:19:47;23.50;99.90
23550;DHT22;11953;49.010;8.608;2022-07-23T05:22:34;23.50;99.90
23550;DHT22;11953;49.010;8.608;2022-07-23T05:25:21;23.60;99.90
23550;DHT22;11953;49.010;8.608;2022-07-23T05:28:08;23.60;99.90
23550;DHT22;11953;49.010;8.608;2022-07-23T05:30:56;23.60;99.90
23550;DHT22;11953;49.010;8.608;2022-07-23T05:33:43;23.70;99.90
23550;DHT22;11953;49.010;8.608;2022-07-23T05:36:32;23.80;99.90
23550;DHT22;11953;49.010;8.608;2022-07-23T05:39:20;23.80;99.90
23550;DHT22;11953;49.010;8.608;2022-07-23T05:42:07;23.90;99.90
23550;DHT22;11953;49.010;8.608;2022-07-23T05:44:54;23.90;99.90
23550;DHT22;11953;49.010;8.608;2022-07-23T05:47:44;23.70;99.90
23550;DHT22;11953;49.010;8.608;2022-07-23T05:50:34;23.60;99.90
23550;DHT22;11953;49.010;8.608;2022-07-23T05:53:34;23.60;99.90
23550;DHT22;11953;49.010;8.608;2022-07-23T05:56:30;23.70;99.90
23550;DHT22;11953;49.010;8.608;2022-07-23T05:59:18;23.70;99.90
23550;DHT22;11953;49.010;8.608;2022-07-23T06:02:05;23.70;99.90
23550;DHT22;11953;49.010;8.608;2022-07-23T06:04:53;23.90;99.90
23550;DHT22;11953;49.010;8.608;2022-07-23T06:07:48;23.90;99.90
23550;DHT22;11953;49.010;8.608;2022-07-23T06:10:37;24.00;99.90
23550;DHT22;11953;49.010;8.608;2022-07-23T06:13:24;24.10;99.90
23550;DHT22;11953;49.010;8.608;2022-07-23T06:16:10;24.10;99.90
23550;DHT22;11953;49.010;8.608;2022-07-23T06:18:57;23.90;99.90
23550;DHT22;11953;49.010;8.608;2022-07-23T06:21:48;23.40;99.90
23550;DHT22;11953;49.010;8.608;2022-07-23T06:24:35;23.50;99.90
23550;DHT22;11953;49.010;8.608;2022-07-23T06:27:23;23.60;99.90
23550;DHT22;11953;49.010;8.608;2022-07-23T06:30:12;23.50;99.90
23550;DHT22;11953;49.010;8.608;2022-07-23T06:33:01;23.30;99.90
23550;DHT22;11953;49.010;8.608;2022-07-23T06:35:48;22.90;99.90
23550;DHT22;11953;49.010;8.608;2022-07-23T06:38:35;22.40;99.90
23550;DHT22;11953;49.010;8.608;2022-07-23T06:41:22;22.00;99.90
23550;DHT22;11953;49.010;8.608;2022-07-23T06:44:11;21.70;99.90
23550;DHT22;11953;49.010;8.608;2022-07-23T06:47:00;21.50;99.90
23550;DHT22;11953;49.010;8.608;2022-07-23T06:49:46;21.60;99.90
23550;DHT22;11953;49.010;8.608;2022-07-23T06:52:33;21.70;99.90
23550;DHT22;11953;49.010;8.608;2022-07-23T06:55:26;21.80;99.90
23550;DHT22;11953;49.010;8.608;2022-07-23T06:58:13;21.90;99.90
23550;DHT22;11953;49.010;8.608;2022-07-23T07:01:03;21.90;99.90
23550;DHT22;11953;49.010;8.608;2022-07-23T07:03:50;22.10;99.90
23550;DHT22;11953;49.010;8.608;2022-07-23T07:06:36;22.30;99.90
23550;DHT22;11953;49.010;8.608;2022-07-23T07:09:23;22.80;99.90
23550;DHT22;11953;49.010;8.608;2022-07-23T07:12:09;23.00;99.90
23550;DHT22;11953;49.010;8.608;2022-07-23T07:14:57;22.90;99.90
23550;DHT22;11953;49.010;8.608;2022-07-23T07:17:45;23.50;99.90
23550;DHT22;11953;49.010;8.608;2022-07-23T07:20:32;23.90;99.90
23550;DHT22;11953;49.010;8.608;2022-07-23T07:23:19;23.90;99.90
23550;DHT22;11953;49.010;8.608;2022-07-23T07:26:06;23.70;99.90
23550;DHT22;11953;49.010;8.608;2022-07-23T07:28:53;23.60;99.90
23550;DHT22;11953;49.010;8.608;2022-07-23T07:31:39;23.50;99.90
23550;DHT22;11953;49.010;8.608;2022-07-23T07:34:28;23.30;99.90
23550;DHT22;11953;49.010;8.608;2022-07-23T07:37:14;23.20;99.90
23550;DHT22;11953;49.010;8.608;2022-07-23T07:40:01;23.20;99.90
23550;DHT22;11953;49.010;8.608;2022-07-23T07:42:49;23.40;99.90
23550;DHT22;11953;49.010;8.608;2022-07-23T07:45:36;23.50;99.90
23550;DHT22;11953;49.010;8.608;2022-07-23T07:48:23;23.50;99.90
23550;DHT22;11953;49.010;8.608;2022-07-23T07:51:11;23.70;99.90
23550;DHT22;11953;49.010;8.608;2022-07-23T07:53:58;23.90;99.90
23550;DHT22;11953;49.010;8.608;2022-07-23T07:56:45;24.40;99.90
23550;DHT22;11953;49.010;8.608;2022-07-23T07:59:33;25.50;99.90
23550;DHT22;11953;49.010;8.608;2022-07-23T08:02:19;26.20;99.90
23550;DHT22;11953;49.010;8.608;2022-07-23T08:05:07;27.10;99.90
23550;DHT22;11953;49.010;8.608;2022-07-23T08:07:55;28.30;99.90
23550;DHT22;11953;49.010;8.608;2022-07-23T08:10:42;28.90;99.90
23550;DHT22;11953;49.010;8.608;2022-07-23T08:13:29;29.30;99.90
23550;DHT22;11953;49.010;8.608;2022-07-23T08:16:15;29.00;99.90
23550;DHT22;11953;49.010;8.608;2022-07-23T08:19:02;28.30;99.90
23550;DHT22;11953;49.010;8.608;2022-07-23T08:21:49;27.60;99.90
23550;DHT22;11953;49.010;8.608;2022-07-23T08:24:37;27.30;99.90
23550;DHT22;11953;49.010;8.608;2022-07-23T08:27:24;27.60;99.90
23550;DHT22;11953;49.010;8.608;2022-07-23T08:30:11;28.20;99.90
23550;DHT22;11953;49.010;8.608;2022-07-23T08:33:00;27.70;99.90
23550;DHT22;11953;49.010;8.608;2022-07-23T08:35:48;27.30;99.90
23550;DHT22;11953;49.010;8.608;2022-07-23T08:38:35;27.40;99.90
23550;DHT22;11953;49.010;8.608;2022-07-23T08:41:23;28.20;99.90
23550;DHT22;11953;49.010;8.608;2022-07-23T08:44:10;29.20;99.90
23550;DHT22;11953;49.010;8.608;2022-07-23T08:46:56;29.80;99.90
23550;DHT22;11953;49.010;8.608;2022-07-23T08:49:43;29.90;99.90
23550;DHT22;11953;49.010;8.608;2022-07-23T08:52:32;30.60;99.90
23550;DHT22;11953;49.010;8.608;2022-07-23T08:55:21;31.10;99.90
23550;DHT22;11953;49.010;8.608;2022-07-23T08:58:09;31.30;99.90
23550;DHT22;11953;49.010;8.608;2022-07-23T09:00:57;31.60;99.80
23550;DHT22;11953;49.010;8.608;2022-07-23T09:03:43;32.10;99.80
23550;DHT22;11953;49.010;8.608;2022-07-23T09:06:31;32.40;99.10
23550;DHT22;11953;49.010;8.608;2022-07-23T09:09:20;32.30;98.40
23550;DHT22;11953;49.010;8.608;2022-07-23T09:12:09;32.60;97.20
23550;DHT22;11953;49.010;8.608;2022-07-23T09:15:03;32.60;95.50
23550;DHT22;11953;49.010;8.608;2022-07-23T09:17:50;32.20;96.30
23550;DHT22;11953;49.010;8.608;2022-07-23T09:20:37;32.10;96.40
23550;DHT22;11953;49.010;8.608;2022-07-23T09:23:37;32.20;95.90
23550;DHT22;11953;49.010;8.608;2022-07-23T09:26:30;32.40;96.20
23550;DHT22;11953;49.010;8.608;2022-07-23T09:29:19;32.00;95.90
23550;DHT22;11953;49.010;8.608;2022-07-23T09:32:13;32.30;95.90
23550;DHT22;11953;49.010;8.608;2022-07-23T09:35:00;32.50;95.40
23550;DHT22;11953;49.010;8.608;2022-07-23T09:38:01;32.50;94.60
23550;DHT22;11953;49.010;8.608;2022-07-23T09:41:05;32.80;94.80
23550;DHT22;11953;49.010;8.608;2022-07-23T09:43:56;33.20;93.40
23550;DHT22;11953;49.010;8.608;2022-07-23T09:46:45;33.50;92.70
23550;DHT22;11953;49.010;8.608;2022-07-23T09:49:33;33.70;91.60
23550;DHT22;11953;49.010;8.608;2022-07-23T09:52:26;33.40;93.30
23550;DHT22;11953;49.010;8.608;2022-07-23T09:55:19;33.60;92.20
23550;DHT22;11953;49.010;8.608;2022-07-23T09:58:06;33.90;91.20
23550;DHT22;11953;49.010;8.608;2022-07-23T10:00:57;33.80;92.00
23550;DHT22;11953;49.010;8.608;2022-07-23T10:03:45;33.90;92.20
23550;DHT22;11953;49.010;8.608;2022-07-23T10:07:07;34.20;91.70
23550;DHT22;11953;49.010;8.608;2022-07-23T10:10:14;34.50;91.20
23550;DHT22;11953;49.010;8.608;2022-07-23T10:13:20;34.20;90.80
23550;DHT22;11953;49.010;8.608;2022-07-23T10:16:30;33.90;90.80
23550;DHT22;11953;49.010;8.608;2022-07-23T10:19:17;33.50;91.40
23550;DHT22;11953;49.010;8.608;2022-07-23T10:22:09;33.80;91.90
23550;DHT22;11953;49.010;8.608;2022-07-23T10:25:03;33.80;91.60
23550;DHT22;11953;49.010;8.608;2022-07-23T10:28:10;33.10;91.40
23550;DHT22;11953;49.010;8.608;2022-07-23T10:31:05;33.30;91.70
23550;DHT22;11953;49.010;8.608;2022-07-23T10:34:14;33.70;91.60
23550;DHT22;11953;49.010;8.608;2022-07-23T10:37:12;33.50;90.90
23550;DHT22;11953;49.010;8.608;2022-07-23T10:40:11;33.50;91.00
23550;DHT22;11953;49.010;8.608;2022-07-23T10:43:00;33.30;90.80
23550;DHT22;11953;49.010;8.608;2022-07-23T10:45:48;33.40;91.50
23550;DHT22;11953;49.010;8.608;2022-07-23T10:48:35;33.40;90.80
23550;DHT22;11953;49.010;8.608;2022-07-23T10:51:22;33.40;90.90
23550;DHT22;11953;49.010;8.608;2022-07-23T10:54:21;33.60;91.50
23550;DHT22;11953;49.010;8.608;2022-07-23T10:57:09;33.60;90.70
23550;DHT22;11953;49.010;8.608;2022-07-23T11:00:21;33.30;90.90
23550;DHT22;11953;49.010;8.608;2022-07-23T11:03:30;33.20;90.80
23550;DHT22;11953;49.010;8.608;2022-07-23T11:06:18;32.80;90.90
23550;DHT22;11953;49.010;8.608;2022-07-23T11:09:26;32.40;90.80
23550;DHT22;11953;49.010;8.608;2022-07-23T11:12:40;32.00;90.80
23550;DHT22;11953;49.010;8.608;2022-07-23T11:15:26;31.90;90.70
23550;DHT22;11953;49.010;8.608;2022-07-23T11:18:13;31.70;91.10
23550;DHT22;11953;49.010;8.608;2022-07-23T11:21:40;31.60;91.40
23550;DHT22;11953;49.010;8.608;2022-07-23T11:24:28;31.90;90.90
23550;DHT22;11953;49.010;8.608;2022-07-23T11:27:15;32.30;90.50
23550;DHT22;11953;49.010;8.608;2022-07-23T11:30:37;32.70;91.10
23550;DHT22;11953;49.010;8.608;2022-07-23T11:33:24;32.90;90.90
23550;DHT22;11953;49.010;8.608;2022-07-23T11:36:11;32.70;90.30
23550;DHT22;11953;49.010;8.608;2022-07-23T11:38:59;32.80;90.10
23550;DHT22;11953;49.010;8.608;2022-07-23T11:41:48;32.60;90.30
23550;DHT22;11953;49.010;8.608;2022-07-23T11:44:37;32.60;90.80
23550;DHT22;11953;49.010;8.608;2022-07-23T11:47:26;32.70;90.20
23550;DHT22;11953;49.010;8.608;2022-07-23T11:50:13;32.70;90.90
23550;DHT22;11953;49.010;8.608;2022-07-23T11:53:00;32.50;91.00
23550;DHT22;11953;49.010;8.608;2022-07-23T11:55:47;32.60;91.20
23550;DHT22;11953;49.010;8.608;2022-07-23T11:58:35;32.60;91.30
23550;DHT22;11953;49.010;8.608;2022-07-23T12:01:22;32.70;90.60
23550;DHT22;11953;49.010;8.608;2022-07-23T12:04:10;33.10;91.80
23550;DHT22;11953;49.010;8.608;2022-07-23T12:06:57;33.40;90.20
23550;DHT22;11953;49.010;8.608;2022-07-23T12:09:44;33.30;90.20
23550;DHT22;11953;49.010;8.608;2022-07-23T12:12:36;33.30;90.00
23550;DHT22;11953;49.010;8.608;2022-07-23T12:15:26;33.00;90.60
23550;DHT22;11953;49.010;8.608;2022-07-23T12:18:17;33.00;90.30
23550;DHT22;11953;49.010;8.608;2022-07-23T12:21:05;33.30;91.00
23550;DHT22;11953;49.010;8.608;2022-07-23T12:24:05;33.10;90.40
23550;DHT22;11953;49.010;8.608;2022-07-23T12:27:08;32.90;89.90
23550;DHT22;11953;49.010;8.608;2022-07-23T12:29:55;32.40;90.60
23550;DHT22;11953;49.010;8.608;2022-07-23T12:32:45;32.30;91.00
23550;DHT22;11953;49.010;8.608;2022-07-23T12:35:34;32.40;90.40
23550;DHT22;11953;49.010;8.608;2022-07-23T12:38:24;32.50;88.10
23550;DHT22;11953;49.010;8.608;2022-07-23T12:41:11;32.30;89.20
23550;DHT22;11953;49.010;8.608;2022-07-23T12:43:58;32.30;90.40
23550;DHT22;11953;49.010;8.608;2022-07-23T12:46:49;32.40;89.60
23550;DHT22;11953;49.010;8.608;2022-07-23T12:49:38;32.30;90.70
23550;DHT22;11953;49.010;8.608;2022-07-23T12:52:24;32.40;90.00
23550;DHT22;11953;49.010;8.608;2022-07-23T12:55:26;32.30;90.00
23550;DHT22;11953;49.010;8.608;2022-07-23T12:58:15;32.30;89.40
23550;DHT22;11953;49.010;8.608;2022-07-23T13:01:05;32.00;88.50
23550;DHT22;11953;49.010;8.608;2022-07-23T13:04:00;31.80;90.10
23550;DHT22;11953;49.010;8.608;2022-07-23T13:06:57;31.70;90.00
23550;DHT22;11953;49.010;8.608;2022-07-23T13:09:48;31.70;91.00
23550;DHT22;11953;49.010;8.608;2022-07-23T13:12:35;31.60;91.10
23550;DHT22;11953;49.010;8.608;2022-07-23T13:15:22;31.60;91.00
23550;DHT22;11953;49.010;8.608;2022-07-23T13:18:09;31.60;91.00
23550;DHT22;11953;49.010;8.608;2022-07-23T13:20:56;31.60;91.20
23550;DHT22;11953;49.010;8.608;2022-07-23T13:23:45;31.40;90.70
23550;DHT22;11953;49.010;8.608;2022-07-23T13:26:32;31.10;90.50
23550;DHT22;11953;49.010;8.608;2022-07-23T13:29:18;31.00;90.80
23550;DHT22;11953;49.010;8.608;2022-07-23T13:32:05;30.80;90.30
23550;DHT22;11953;49.010;8.608;2022-07-23T13:34:57;30.80;90.70
23550;DHT22;11953;49.010;8.608;2022-07-23T13:37:46;30.80;91.70
23550;DHT22;11953;49.010;8.608;2022-07-23T13:40:35;31.00;92.80
23550;DHT22;11953;49.010;8.608;2022-07-23T13:43:24;31.00;91.90
23550;DHT22;11953;49.010;8.608;2022-07-23T13:46:17;31.00;91.60
23550;DHT22;11953;49.010;8.608;2022-07-23T13:49:05;31.00;91.40
23550;DHT22;11953;49.010;8.608;2022-07-23T13:51:54;31.10;91.10
23550;DHT22;11953;49.010;8.608;2022-07-23T13:54:41;31.10;90.80
23550;DHT22;11953;49.010;8.608;2022-07-23T13:57:29;31.10;90.70
23550;DHT22;11953;49.010;8.608;2022-07-23T14:00:16;31.00;90.80
23550;DHT22;11953;49.010;8.608;2022-07-23T14:03:23;30.90;91.30
23550;DHT22;11953;49.010;8.608;2022-07-23T14:06:11;30.90;91.30
23550;DHT22;11953;49.010;8.608;2022-07-23T14:09:01;30.90;91.10
23550;DHT22;11953;49.010;8.608;2022-07-23T14:11:49;31.00;92.10
23550;DHT22;11953;49.010;8.608;2022-07-23T14:14:38;31.00;91.40
23550;DHT22;11953;49.010;8.608;2022-07-23T14:17:25;31.00;91.30
23550;DHT22;11953;49.010;8.608;2022-07-23T14:20:13;30.90;91.50
23550;DHT22;11953;49.010;8.608;2022-07-23T14:23:00;30.80;91.30
23550;DHT22;11953;49.010;8.608;2022-07-23T14:25:50;30.80;92.20
23550;DHT22;11953;49.010;8.608;2022-07-23T14:28:37;30.80;91.60
23550;DHT22;11953;49.010;8.608;2022-07-23T14:31:26;30.70;91.20
23550;DHT22;11953;49.010;8.608;2022-07-23T14:34:12;30.60;91.70
23550;DHT22;11953;49.010;8.608;2022-07-23T14:36:59;30.50;91.50
23550;DHT22;11953;49.010;8.608;2022-07-23T14:39:47;30.60;91.80
23550;DHT22;11953;49.010;8.608;2022-07-23T14:42:34;30.60;91.30
23550;DHT22;11953;49.010;8.608;2022-07-23T14:45:21;30.60;91.50
23550;DHT22;11953;49.010;8.608;2022-07-23T14:48:09;30.50;91.80
23550;DHT22;11953;49.010;8.608;2022-07-23T14:50:56;30.50;91.50
23550;DHT22;11953;49.010;8.608;2022-07-23T14:53:43;30.50;92.00
23550;DHT22;11953;49.010;8.608;2022-07-23T14:56:30;30.50;92.50
23550;DHT22;11953;49.010;8.608;2022-07-23T14:59:19;30.60;92.00
23550;DHT22;11953;49.010;8.608;2022-07-23T15:02:06;30.60;91.80
23550;DHT22;11953;49.010;8.608;2022-07-23T15:04:54;30.60;92.50
23550;DHT22;11953;49.010;8.608;2022-07-23T15:07:43;30.50;91.90
23550;DHT22;11953;49.010;8.608;2022-07-23T15:10:29;30.50;92.30
23550;DHT22;11953;49.010;8.608;2022-07-23T15:13:16;30.30;91.70
23550;DHT22;11953;49.010;8.608;2022-07-23T15:16:04;30.30;91.70
23550;DHT22;11953;49.010;8.608;2022-07-23T15:18:54;30.30;91.40
23550;DHT22;11953;49.010;8.608;2022-07-23T15:21:42;30.20;91.50
23550;DHT22;11953;49.010;8.608;2022-07-23T15:24:33;30.30;92.00
23550;DHT22;11953;49.010;8.608;2022-07-23T15:27:20;30.20;91.90
23550;DHT22;11953;49.010;8.608;2022-07-23T15:30:10;30.30;91.70
23550;DHT22;11953;49.010;8.608;2022-07-23T15:32:57;30.50;91.20
23550;DHT22;11953;49.010;8.608;2022-07-23T15:35:44;30.60;90.90
23550;DHT22;11953;49.010;8.608;2022-07-23T15:38:33;30.60;91.00
23550;DHT22;11953;49.010;8.608;2022-07-23T15:41:19;30.50;90.70
23550;DHT22;11953;49.010;8.608;2022-07-23T15:44:08;30.50;90.60
23550;DHT22;11953;49.010;8.608;2022-07-23T15:47:16;30.30;90.70
23550;DHT22;11953;49.010;8.608;2022-07-23T15:50:04;30.30;90.80
23550;DHT22;11953;49.010;8.608;2022-07-23T15:52:51;30.30;90.90
23550;DHT22;11953;49.010;8.608;2022-07-23T15:55:40;30.30;91.50
23550;DHT22;11953;49.010;8.608;2022-07-23T15:58:30;30.20;91.70
23550;DHT22;11953;49.010;8.608;2022-07-23T16:01:17;30.20;91.90
23550;DHT22;11953;49.010;8.608;2022-07-23T16:04:04;30.20;92.30
23550;DHT22;11953;49.010;8.608;2022-07-23T16:06:51;30.30;92.50
23550;DHT22;11953;49.010;8.608;2022-07-23T16:09:38;30.10;92.70
23550;DHT22;11953;49.010;8.608;2022-07-23T16:12:26;30.00;93.10
23550;DHT22;11953;49.010;8.608;2022-07-23T16:15:13;30.00;93.30
23550;DHT22;11953;49.010;8.608;2022-07-23T16:18:00;30.00;94.70
23550;DHT22;11953;49.010;8.608;2022-07-23T16:20:47;30.20;94.00
23550;DHT22;11953;49.010;8.608;2022-07-23T16:23:33;30.20;93.00
23550;DHT22;11953;49.010;8.608;2022-07-23T16:26:20;30.20;93.60
23550;DHT22;11953;49.010;8.608;2022-07-23T16:29:08;29.90;93.80
23550;DHT22;11953;49.010;8.608;2022-07-23T16:32:05;29.90;94.50
23550;DHT22;11953;49.010;8.608;2022-07-23T16:34:51;29.90;93.40
23550;DHT22;11953;49.010;8.608;2022-07-23T16:37:39;30.00;93.30
23550;DHT22;11953;49.010;8.608;2022-07-23T16:40:26;30.10;93.20
23550;DHT22;11953;49.010;8.608;2022-07-23T16:43:12;30.10;92.80
23550;DHT22;11953;49.010;8.608;2022-07-23T16:46:00;30.20;93.10
23550;DHT22;11953;49.010;8.608;2022-07-23T16:48:47;30.20;93.20
23550;DHT22;11953;49.010;8.608;2022-07-23T16:51:34;30.20;93.10
23550;DHT22;11953;49.010;8.608;2022-07-23T16:54:21;30.10;92.60
23550;DHT22;11953;49.010;8.608;2022-07-23T16:57:08;30.20;92.90
23550;DHT22;11953;49.010;8.608;2022-07-23T16:59:54;30.20;92.80
23550;DHT22;11953;49.010;8.608;2022-07-23T17:02:43;30.10;93.40
23550;DHT22;11953;49.010;8.608;2022-07-23T17:05:30;30.00;92.90
23550;DHT22;11953;49.010;8.608;2022-07-23T17:08:17;30.00;93.40
23550;DHT22;11953;49.010;8.608;2022-07-23T17:11:04;29.90;93.30
23550;DHT22;11953;49.010;8.608;2022-07-23T17:13:50;29.80;93.00
23550;DHT22;11953;49.010;8.608;2022-07-23T17:16:37;29.90;93.70
23550;DHT22;11953;49.010;8.608;2022-07-23T17:19:26;29.80;93.50
23550;DHT22;11953;49.010;8.608;2022-07-23T17:22:12;29.80;93.90
23550;DHT22;11953;49.010;8.608;2022-07-23T17:25:00;29.70;93.20
23550;DHT22;11953;49.010;8.608;2022-07-23T17:27:48;29.80;93.70
23550;DHT22;11953;49.010;8.608;2022-07-23T17:30:35;29.70;93.20
23550;DHT22;11953;49.010;8.608;2022-07-23T17:33:21;29.60;94.00
23550;DHT22;11953;49.010;8.608;2022-07-23T17:36:09;29.50;93.50
23550;DHT22;11953;49.010;8.608;2022-07-23T17:38:56;29.50;93.60
23550;DHT22;11953;49.010;8.608;2022-07-23T17:41:50;29.60;93.90
23550;DHT22;11953;49.010;8.608;2022-07-23T17:44:37;29.50;94.70
23550;DHT22;11953;49.010;8.608;2022-07-23T17:47:24;29.40;94.50
23550;DHT22;11953;49.010;8.608;2022-07-23T17:50:10;29.40;94.40